sensor_id;sensor_type;location;lat;lon;timestamp;pressure;altitude;pressure_sealevel;temperature;humidity
11672;BME280;5892;43.412;24.612;2023-05-27T00:00:20;100055.91;;;17.16;100.00
11672;BME280;5892;43.412;24.612;2023-05-27T00:02:47;100048.47;;;17.20;100.00
11672;BME280;5892;43.412;24.612;2023-05-27T00:05:14;100036.72;;;17.07;100.00
11672;BME280;5892;43.412;24.612;2023-05-27T00:07:41;100032.25;;;17.03;100.00
11672;BME280;5892;43.412;24.612;2023-05-27T00:10:10;100025.50;;;17.00;100.00
11672;BME280;5892;43.412;24.612;2023-05-27T00:12:37;100020.50;;;16.90;100.00
11672;BME280;5892;43.412;24.612;2023-05-27T00:15:04;100027.06;;;17.01;100.00
11672;BME280;5892;43.412;24.612;2023-05-27T00:17:31;100016.91;;;17.05;100.00
11672;BME280;5892;43.412;24.612;2023-05-27T00:19:58;100020.38;;;17.02;100.00
11672;BME280;5892;43.412;24.612;2023-05-27T00:22:32;100019.03;;;16.96;100.00
11672;BME280;5892;43.412;24.612;2023-05-27T00:25:00;100012.63;;;16.92;100.00
11672;BME280;5892;43.412;24.612;2023-05-27T00:27:28;100014.06;;;16.86;100.00
11672;BME280;5892;43.412;24.612;2023-05-27T00:29:55;100011.69;;;16.84;100.00
11672;BME280;5892;43.412;24.612;2023-05-27T00:32:22;100025.31;;;16.93;100.00
11672;BME280;5892;43.412;24.612;2023-05-27T00:34:49;100017.75;;;16.90;100.00
11672;BME280;5892;43.412;24.612;2023-05-27T00:37:15;99995.16;;;16.88;100.00
11672;BME280;5892;43.412;24.612;2023-05-27T00:39:42;99990.06;;;16.90;100.00
11672;BME280;5892;43.412;24.612;2023-05-27T00:42:10;99993.28;;;16.76;100.00
11672;BME280;5892;43.412;24.612;2023-05-27T00:44:38;99983.03;;;16.77;100.00
11672;BME280;5892;43.412;24.612;2023-05-27T00:47:06;99972.75;;;16.77;100.00
11672;BME280;5892;43.412;24.612;2023-05-27T00:49:33;99969.19;;;16.77;100.00
11672;BME280;5892;43.412;24.612;2023-05-27T00:52:00;99970.00;;;16.77;100.00
11672;BME280;5892;43.412;24.612;2023-05-27T00:54:27;99970.44;;;16.79;100.00
11672;BME280;5892;43.412;24.612;2023-05-27T00:56:54;99972.69;;;16.74;100.00
11672;BME280;5892;43.412;24.612;2023-05-27T00:59:22;99962.25;;;16.67;100.00
11672;BME280;5892;43.412;24.612;2023-05-27T01:01:51;99932.63;;;16.52;100.00
11672;BME280;5892;43.412;24.612;2023-05-27T01:04:19;99939.84;;;16.57;100.00
11672;BME280;5892;43.412;24.612;2023-05-27T01:06:53;99943.69;;;16.52;100.00
11672;BME280;5892;43.412;24.612;2023-05-27T01:09:27;99942.00;;;16.47;100.00
11672;BME280;5892;43.412;24.612;2023-05-27T01:12:00;99920.50;;;16.41;100.00
11672;BME280;5892;43.412;24.612;2023-05-27T01:14:30;99949.28;;;16.56;100.00
11672;BME280;5892;43.412;24.612;2023-05-27T01:17:01;99957.69;;;16.59;100.00
11672;BME280;5892;43.412;24.612;2023-05-27T01:19:33;99950.66;;;16.62;100.00
11672;BME280;5892;43.412;24.612;2023-05-27T01:22:00;99945.56;;;16.64;100.00
11672;BME280;5892;43.412;24.612;2023-05-27T01:24:30;99937.97;;;16.61;100.00
11672;BME280;5892;43.412;24.612;2023-05-27T01:26:58;99909.38;;;16.37;100.00
11672;BME280;5892;43.412;24.612;2023-05-27T01:29:26;99938.97;;;16.52;100.00
11672;BME280;5892;43.412;24.612;2023-05-27T01:31:57;99953.75;;;16.44;100.00
11672;BME280;5892;43.412;24.612;2023-05-27T01:34:29;99946.28;;;16.29;100.00
11672;BME280;5892;43.412;24.612;2023-05-27T01:37:02;99945.94;;;16.15;100.00
11672;BME280;5892;43.412;24.612;2023-05-27T01:39:32;99944.59;;;16.09;100.00
11672;BME280;5892;43.412;24.612;2023-05-27T01:42:00;99948.25;;;16.13;100.00
11672;BME280;5892;43.412;24.612;2023-05-27T01:44:29;99946.63;;;16.12;100.00
11672;BME280;5892;43.412;24.612;2023-05-27T01:47:00;99951.91;;;16.17;100.00
11672;BME280;5892;43.412;24.612;2023-05-27T01:49:27;99950.72;;;16.18;100.00
11672;BME280;5892;43.412;24.612;2023-05-27T01:51:54;99962.31;;;16.08;100.00
11672;BME280;5892;43.412;24.612;2023-05-27T01:54:21;99967.41;;;16.06;100.00
11672;BME280;5892;43.412;24.612;2023-05-27T01:56:49;99954.75;;;16.05;100.00
11672;BME280;5892;43.412;24.612;2023-05-27T01:59:16;99958.41;;;16.09;100.00
11672;BME280;5892;43.412;24.612;2023-05-27T02:01:43;99960.81;;;16.10;100.00
11672;BME280;5892;43.412;24.612;2023-05-27T02:04:11;99947.97;;;16.18;100.00
11672;BME280;5892;43.412;24.612;2023-05-27T02:06:37;99944.41;;;16.18;100.00
11672;BME280;5892;43.412;24.612;2023-05-27T02:09:05;99942.72;;;16.13;100.00
11672;BME280;5892;43.412;24.612;2023-05-27T02:11:32;99931.38;;;16.18;100.00
11672;BME280;5892;43.412;24.612;2023-05-27T02:14:01;99946.81;;;16.19;100.00
11672;BME280;5892;43.412;24.612;2023-05-27T02:16:28;99896.53;;;15.98;100.00
11672;BME280;5892;43.412;24.612;2023-05-27T02:18:56;99945.41;;;16.25;100.00
11672;BME280;5892;43.412;24.612;2023-05-27T02:21:23;99940.59;;;16.22;100.00
11672;BME280;5892;43.412;24.612;2023-05-27T02:23:50;99932.91;;;16.16;100.00
11672;BME280;5892;43.412;24.612;2023-05-27T02:26:18;99946.53;;;16.24;100.00
11672;BME280;5892;43.412;24.612;2023-05-27T02:28:44;99946.91;;;16.23;100.00
11672;BME280;5892;43.412;24.612;2023-05-27T02:31:13;99943.09;;;16.27;100.00
11672;BME280;5892;43.412;24.612;2023-05-27T02:33:40;99944.59;;;16.25;100.00
11672;BME280;5892;43.412;24.612;2023-05-27T02:36:07;99949.78;;;16.26;100.00
11672;BME280;5892;43.412;24.612;2023-05-27T02:38:37;99945.38;;;16.09;100.00
11672;BME280;5892;43.412;24.612;2023-05-27T02:41:04;99951.53;;;16.03;100.00
11672;BME280;5892;43.412;24.612;2023-05-27T02:43:31;99952.94;;;15.97;100.00
11672;BME280;5892;43.412;24.612;2023-05-27T02:45:58;99953.47;;;15.87;100.00
11672;BME280;5892;43.412;24.612;2023-05-27T02:48:26;99956.91;;;15.96;100.00
11672;BME280;5892;43.412;24.612;2023-05-27T02:50:53;99957.25;;;16.10;100.00
11672;BME280;5892;43.412;24.612;2023-05-27T02:53:19;99948.06;;;16.06;100.00
11672;BME280;5892;43.412;24.612;2023-05-27T02:55:46;99962.31;;;16.08;100.00
11672;BME280;5892;43.412;24.612;2023-05-27T02:58:13;99952.59;;;15.98;100.00
11672;BME280;5892;43.412;24.612;2023-05-27T03:00:40;99954.13;;;15.96;100.00
11672;BME280;5892;43.412;24.612;2023-05-27T03:03:07;99965.19;;;15.96;100.00
11672;BME280;5892;43.412;24.612;2023-05-27T03:05:35;99958.84;;;15.95;100.00
11672;BME280;5892;43.412;24.612;2023-05-27T03:08:03;99974.38;;;16.00;100.00
11672;BME280;5892;43.412;24.612;2023-05-27T03:10:31;99972.50;;;16.04;100.00
11672;BME280;5892;43.412;24.612;2023-05-27T03:12:58;99970.19;;;16.06;100.00
11672;BME280;5892;43.412;24.612;2023-05-27T03:15:25;99960.72;;;16.07;100.00
11672;BME280;5892;43.412;24.612;2023-05-27T03:17:55;99955.47;;;16.18;100.00
11672;BME280;5892;43.412;24.612;2023-05-27T03:20:22;99951.53;;;16.19;100.00
11672;BME280;5892;43.412;24.612;2023-05-27T03:22:51;99969.75;;;16.35;100.00
11672;BME280;5892;43.412;24.612;2023-05-27T03:25:18;99962.44;;;16.43;100.00
11672;BME280;5892;43.412;24.612;2023-05-27T03:27:45;99974.47;;;16.50;100.00
11672;BME280;5892;43.412;24.612;2023-05-27T03:30:12;99975.09;;;16.60;100.00
11672;BME280;5892;43.412;24.612;2023-05-27T03:32:39;99980.25;;;16.77;100.00
11672;BME280;5892;43.412;24.612;2023-05-27T03:35:06;99979.97;;;16.82;100.00
11672;BME280;5892;43.412;24.612;2023-05-27T03:37:33;99979.06;;;16.93;100.00
11672;BME280;5892;43.412;24.612;2023-05-27T03:40:01;99986.09;;;16.91;100.00
11672;BME280;5892;43.412;24.612;2023-05-27T03:42:28;99975.66;;;17.00;100.00
11672;BME280;5892;43.412;24.612;2023-05-27T03:44:55;99986.16;;;17.10;100.00
11672;BME280;5892;43.412;24.612;2023-05-27T03:47:22;99986.25;;;17.14;100.00
11672;BME280;5892;43.412;24.612;2023-05-27T03:49:49;99980.00;;;17.01;100.00
11672;BME280;5892;43.412;24.612;2023-05-27T03:52:16;99994.94;;;16.97;100.00
11672;BME280;5892;43.412;24.612;2023-05-27T03:54:43;99992.34;;;17.04;100.00
11672;BME280;5892;43.412;24.612;2023-05-27T03:57:11;99991.94;;;17.21;100.00
11672;BME280;5892;43.412;24.612;2023-05-27T03:59:38;100002.56;;;17.38;100.00
11672;BME280;5892;43.412;24.612;2023-05-27T04:02:05;100005.28;;;17.54;100.00
11672;BME280;5892;43.412;24.612;2023-05-27T04:04:33;100002.09;;;17.52;100.00
11672;BME280;5892;43.412;24.612;2023-05-27T04:07:00;100006.03;;;17.51;100.00
11672;BME280;5892;43.412;24.612;2023-05-27T04:09:27;100006.47;;;17.53;100.00
11672;BME280;5892;43.412;24.612;2023-05-27T04:11:54;100012.44;;;17.55;100.00
11672;BME280;5892;43.412;24.612;2023-05-27T04:14:22;100010.47;;;17.55;100.00
11672;BME280;5892;43.412;24.612;2023-05-27T04:16:49;100009.44;;;17.44;100.00
11672;BME280;5892;43.412;24.612;2023-05-27T04:19:16;100011.78;;;17.42;100.00
11672;BME280;5892;43.412;24.612;2023-05-27T04:21:43;100002.50;;;17.34;100.00
11672;BME280;5892;43.412;24.612;2023-05-27T04:24:10;100007.69;;;17.55;100.00
11672;BME280;5892;43.412;24.612;2023-05-27T04:26:37;100014.06;;;17.75;100.00
11672;BME280;5892;43.412;24.612;2023-05-27T04:29:06;100006.06;;;17.89;100.00
11672;BME280;5892;43.412;24.612;2023-05-27T04:31:36;100007.31;;;17.95;100.00
11672;BME280;5892;43.412;24.612;2023-05-27T04:34:03;100018.00;;;17.93;100.00
11672;BME280;5892;43.412;24.612;2023-05-27T04:36:30;100019.22;;;18.15;100.00
11672;BME280;5892;43.412;24.612;2023-05-27T04:38:58;100017.41;;;18.49;100.00
11672;BME280;5892;43.412;24.612;2023-05-27T04:41:27;100016.94;;;18.66;100.00
11672;BME280;5892;43.412;24.612;2023-05-27T04:43:54;100024.44;;;18.88;100.00
11672;BME280;5892;43.412;24.612;2023-05-27T04:46:22;100021.19;;;19.09;100.00
11672;BME280;5892;43.412;24.612;2023-05-27T04:48:52;100019.22;;;19.10;100.00
11672;BME280;5892;43.412;24.612;2023-05-27T04:51:19;100025.66;;;19.17;100.00
11672;BME280;5892;43.412;24.612;2023-05-27T04:53:46;100023.81;;;19.25;100.00
11672;BME280;5892;43.412;24.612;2023-05-27T04:56:14;100019.56;;;19.34;100.00
11672;BME280;5892;43.412;24.612;2023-05-27T04:58:43;100014.34;;;19.59;100.00
11672;BME280;5892;43.412;24.612;2023-05-27T05:01:12;100024.19;;;19.53;100.00
11672;BME280;5892;43.412;24.612;2023-05-27T05:03:43;100033.75;;;19.52;100.00
11672;BME280;5892;43.412;24.612;2023-05-27T05:06:19;100037.97;;;19.72;100.00
11672;BME280;5892;43.412;24.612;2023-05-27T05:08:46;100033.91;;;19.66;100.00
11672;BME280;5892;43.412;24.612;2023-05-27T05:11:14;100044.66;;;19.68;100.00
11672;BME280;5892;43.412;24.612;2023-05-27T05:13:41;100046.34;;;19.76;100.00
11672;BME280;5892;43.412;24.612;2023-05-27T05:16:08;100040.78;;;19.76;100.00
11672;BME280;5892;43.412;24.612;2023-05-27T05:18:35;100044.69;;;19.71;100.00
11672;BME280;5892;43.412;24.612;2023-05-27T05:21:02;100041.34;;;19.88;100.00
11672;BME280;5892;43.412;24.612;2023-05-27T05:23:30;100038.69;;;19.99;100.00
11672;BME280;5892;43.412;24.612;2023-05-27T05:25:57;100042.84;;;19.82;100.00
11672;BME280;5892;43.412;24.612;2023-05-27T05:28:31;100052.88;;;19.91;100.00
11672;BME280;5892;43.412;24.612;2023-05-27T05:30:58;100053.19;;;19.85;100.00
11672;BME280;5892;43.412;24.612;2023-05-27T05:33:25;100045.69;;;19.89;100.00
11672;BME280;5892;43.412;24.612;2023-05-27T05:35:53;100048.91;;;19.92;100.00
11672;BME280;5892;43.412;24.612;2023-05-27T05:38:19;100047.88;;;20.03;100.00
11672;BME280;5892;43.412;24.612;2023-05-27T05:40:48;100057.50;;;20.13;100.00
11672;BME280;5892;43.412;24.612;2023-05-27T05:43:19;100056.09;;;20.29;100.00
11672;BME280;5892;43.412;24.612;2023-05-27T05:45:46;100057.38;;;20.36;100.00
11672;BME280;5892;43.412;24.612;2023-05-27T05:48:13;100056.44;;;20.61;100.00
11672;BME280;5892;43.412;24.612;2023-05-27T05:50:40;100043.44;;;20.80;100.00
11672;BME280;5892;43.412;24.612;2023-05-27T05:53:07;100061.22;;;21.12;100.00
11672;BME280;5892;43.412;24.612;2023-05-27T05:55:34;100052.59;;;21.28;100.00
11672;BME280;5892;43.412;24.612;2023-05-27T05:58:02;100062.28;;;21.51;100.00
11672;BME280;5892;43.412;24.612;2023-05-27T06:00:30;100071.72;;;21.29;100.00
11672;BME280;5892;43.412;24.612;2023-05-27T06:02:57;100070.88;;;21.25;100.00
11672;BME280;5892;43.412;24.612;2023-05-27T06:05:24;100077.16;;;21.15;100.00
11672;BME280;5892;43.412;24.612;2023-05-27T06:07:52;100077.28;;;21.29;100.00
11672;BME280;5892;43.412;24.612;2023-05-27T06:10:19;100065.78;;;21.34;100.00
11672;BME280;5892;43.412;24.612;2023-05-27T06:12:46;100070.94;;;21.32;100.00
11672;BME280;5892;43.412;24.612;2023-05-27T06:15:16;100073.91;;;21.61;100.00
11672;BME280;5892;43.412;24.612;2023-05-27T06:17:44;100074.38;;;21.77;100.00
11672;BME280;5892;43.412;24.612;2023-05-27T06:20:12;100083.19;;;21.86;100.00
11672;BME280;5892;43.412;24.612;2023-05-27T06:22:39;100080.06;;;21.98;100.00
11672;BME280;5892;43.412;24.612;2023-05-27T06:25:07;100082.47;;;22.03;100.00
11672;BME280;5892;43.412;24.612;2023-05-27T06:27:34;100084.94;;;22.19;100.00
11672;BME280;5892;43.412;24.612;2023-05-27T06:30:01;100094.34;;;21.93;100.00
11672;BME280;5892;43.412;24.612;2023-05-27T06:32:29;100087.84;;;21.64;100.00
11672;BME280;5892;43.412;24.612;2023-05-27T06:34:56;100096.75;;;21.87;100.00
11672;BME280;5892;43.412;24.612;2023-05-27T06:37:23;100092.88;;;22.20;100.00
11672;BME280;5892;43.412;24.612;2023-05-27T06:39:50;100091.28;;;22.12;100.00
11672;BME280;5892;43.412;24.612;2023-05-27T06:42:16;100090.94;;;22.28;100.00
11672;BME280;5892;43.412;24.612;2023-05-27T06:44:44;100087.00;;;22.50;100.00
11672;BME280;5892;43.412;24.612;2023-05-27T06:47:11;100093.34;;;22.44;100.00
11672;BME280;5892;43.412;24.612;2023-05-27T06:49:40;100093.00;;;22.56;100.00
11672;BME280;5892;43.412;24.612;2023-05-27T06:52:07;100094.53;;;22.43;100.00
11672;BME280;5892;43.412;24.612;2023-05-27T06:54:34;100095.44;;;22.71;100.00
11672;BME280;5892;43.412;24.612;2023-05-27T06:57:02;100085.38;;;22.56;100.00
11672;BME280;5892;43.412;24.612;2023-05-27T06:59:29;100094.53;;;22.46;100.00
11672;BME280;5892;43.412;24.612;2023-05-27T07:01:57;100076.25;;;22.56;100.00
11672;BME280;5892;43.412;24.612;2023-05-27T07:04:24;100080.53;;;22.21;100.00
11672;BME280;5892;43.412;24.612;2023-05-27T07:06:53;100086.91;;;22.25;100.00
11672;BME280;5892;43.412;24.612;2023-05-27T07:09:20;100101.59;;;22.01;100.00
11672;BME280;5892;43.412;24.612;2023-05-27T07:11:46;100096.88;;;22.16;100.00
11672;BME280;5892;43.412;24.612;2023-05-27T07:14:13;100094.41;;;22.00;100.00
11672;BME280;5892;43.412;24.612;2023-05-27T07:16:41;100096.69;;;21.77;100.00
11672;BME280;5892;43.412;24.612;2023-05-27T07:19:07;100095.72;;;21.51;100.00
11672;BME280;5892;43.412;24.612;2023-05-27T07:21:42;100096.09;;;21.46;100.00
11672;BME280;5892;43.412;24.612;2023-05-27T07:24:10;100085.38;;;21.48;100.00
11672;BME280;5892;43.412;24.612;2023-05-27T07:26:37;100084.50;;;21.37;100.00
11672;BME280;5892;43.412;24.612;2023-05-27T07:29:05;100090.06;;;21.37;100.00
11672;BME280;5892;43.412;24.612;2023-05-27T07:31:32;100086.94;;;21.46;100.00
11672;BME280;5892;43.412;24.612;2023-05-27T07:33:59;100090.50;;;21.39;100.00
11672;BME280;5892;43.412;24.612;2023-05-27T07:36:26;100093.16;;;21.25;100.00
11672;BME280;5892;43.412;24.612;2023-05-27T07:38:53;100095.91;;;21.18;100.00
11672;BME280;5892;43.412;24.612;2023-05-27T07:41:21;100087.81;;;21.02;100.00
11672;BME280;5892;43.412;24.612;2023-05-27T07:43:51;100088.28;;;21.11;100.00
11672;BME280;5892;43.412;24.612;2023-05-27T07:46:18;100078.53;;;20.88;100.00
11672;BME280;5892;43.412;24.612;2023-05-27T07:48:45;100081.63;;;20.79;100.00
11672;BME280;5892;43.412;24.612;2023-05-27T07:51:12;100086.75;;;20.73;100.00
11672;BME280;5892;43.412;24.612;2023-05-27T07:53:39;100088.03;;;20.83;100.00
11672;BME280;5892;43.412;24.612;2023-05-27T07:56:06;100079.38;;;20.95;100.00
11672;BME280;5892;43.412;24.612;2023-05-27T07:58:34;100081.00;;;20.96;100.00
11672;BME280;5892;43.412;24.612;2023-05-27T08:01:01;100100.16;;;21.05;100.00
11672;BME280;5892;43.412;24.612;2023-05-27T08:03:27;100105.72;;;21.05;100.00
11672;BME280;5892;43.412;24.612;2023-05-27T08:05:55;100088.88;;;20.87;100.00
11672;BME280;5892;43.412;24.612;2023-05-27T08:08:22;100098.13;;;20.98;100.00
11672;BME280;5892;43.412;24.612;2023-05-27T08:10:49;100099.34;;;21.01;100.00
11672;BME280;5892;43.412;24.612;2023-05-27T08:13:16;100086.91;;;20.91;100.00
11672;BME280;5892;43.412;24.612;2023-05-27T08:15:45;100102.75;;;21.31;100.00
11672;BME280;5892;43.412;24.612;2023-05-27T08:18:12;100111.75;;;21.65;100.00
11672;BME280;5892;43.412;24.612;2023-05-27T08:20:39;100110.25;;;21.82;100.00
11672;BME280;5892;43.412;24.612;2023-05-27T08:23:06;100115.53;;;22.01;100.00
11672;BME280;5892;43.412;24.612;2023-05-27T08:25:35;100113.25;;;22.28;100.00
11672;BME280;5892;43.412;24.612;2023-05-27T08:28:02;100104.13;;;22.42;100.00
11672;BME280;5892;43.412;24.612;2023-05-27T08:30:29;100111.78;;;22.73;100.00
11672;BME280;5892;43.412;24.612;2023-05-27T08:32:58;100119.41;;;22.97;100.00
11672;BME280;5892;43.412;24.612;2023-05-27T08:35:25;100119.41;;;23.18;100.00
11672;BME280;5892;43.412;24.612;2023-05-27T08:37:52;100115.38;;;23.41;100.00
11672;BME280;5892;43.412;24.612;2023-05-27T08:40:19;100116.16;;;23.41;100.00
11672;BME280;5892;43.412;24.612;2023-05-27T08:42:46;100111.78;;;23.65;100.00
11672;BME280;5892;43.412;24.612;2023-05-27T08:45:14;100107.59;;;24.12;100.00
11672;BME280;5892;43.412;24.612;2023-05-27T08:47:42;100109.97;;;24.28;100.00
11672;BME280;5892;43.412;24.612;2023-05-27T08:50:12;100110.28;;;24.37;100.00
11672;BME280;5892;43.412;24.612;2023-05-27T08:52:45;100092.59;;;24.51;100.00
11672;BME280;5892;43.412;24.612;2023-05-27T08:55:15;100110.63;;;24.46;100.00
11672;BME280;5892;43.412;24.612;2023-05-27T08:57:44;100107.59;;;24.23;100.00
11672;BME280;5892;43.412;24.612;2023-05-27T09:00:13;100100.69;;;24.34;100.00
11672;BME280;5892;43.412;24.612;2023-05-27T09:02:40;100089.63;;;24.06;100.00
11672;BME280;5892;43.412;24.612;2023-05-27T09:05:08;100104.38;;;24.21;100.00
11672;BME280;5892;43.412;24.612;2023-05-27T09:07:37;100099.97;;;24.16;100.00
11672;BME280;5892;43.412;24.612;2023-05-27T09:10:05;100106.78;;;24.22;100.00
11672;BME280;5892;43.412;24.612;2023-05-27T09:12:33;100103.25;;;23.93;100.00
11672;BME280;5892;43.412;24.612;2023-05-27T09:15:01;100107.25;;;23.99;100.00
11672;BME280;5892;43.412;24.612;2023-05-27T09:17:28;100095.72;;;23.76;100.00
11672;BME280;5892;43.412;24.612;2023-05-27T09:19:55;100103.69;;;23.88;100.00
11672;BME280;5892;43.412;24.612;2023-05-27T09:22:24;100107.72;;;23.80;100.00
11672;BME280;5892;43.412;24.612;2023-05-27T09:24:53;100105.34;;;23.68;100.00
11672;BME280;5892;43.412;24.612;2023-05-27T09:27:24;100107.31;;;23.78;100.00
11672;BME280;5892;43.412;24.612;2023-05-27T09:29:52;100103.41;;;23.47;100.00
11672;BME280;5892;43.412;24.612;2023-05-27T09:32:26;100106.97;;;23.51;100.00
11672;BME280;5892;43.412;24.612;2023-05-27T09:34:53;100098.56;;;23.62;100.00
11672;BME280;5892;43.412;24.612;2023-05-27T09:37:24;100097.66;;;23.93;100.00
11672;BME280;5892;43.412;24.612;2023-05-27T09:39:52;100099.59;;;24.21;100.00
11672;BME280;5892;43.412;24.612;2023-05-27T09:42:19;100089.56;;;24.13;100.00
11672;BME280;5892;43.412;24.612;2023-05-27T09:44:46;100080.72;;;24.32;100.00
11672;BME280;5892;43.412;24.612;2023-05-27T09:47:16;100092.53;;;24.65;100.00
11672;BME280;5892;43.412;24.612;2023-05-27T09:49:45;100086.41;;;24.80;100.00
11672;BME280;5892;43.412;24.612;2023-05-27T09:52:13;100081.56;;;24.84;100.00
11672;BME280;5892;43.412;24.612;2023-05-27T09:54:43;100076.63;;;25.03;100.00
11672;BME280;5892;43.412;24.612;2023-05-27T09:57:12;100079.03;;;25.04;87.15
11672;BME280;5892;43.412;24.612;2023-05-27T09:59:40;100064.00;;;25.25;86.15
11672;BME280;5892;43.412;24.612;2023-05-27T10:02:08;100075.84;;;25.43;85.07
11672;BME280;5892;43.412;24.612;2023-05-27T10:04:38;100071.06;;;25.40;85.71
11672;BME280;5892;43.412;24.612;2023-05-27T10:07:06;100074.28;;;25.39;85.83
11672;BME280;5892;43.412;24.612;2023-05-27T10:09:33;100071.34;;;25.49;83.16
11672;BME280;5892;43.412;24.612;2023-05-27T10:11:59;100067.72;;;25.52;84.52
11672;BME280;5892;43.412;24.612;2023-05-27T10:14:28;100063.56;;;25.67;83.23
11672;BME280;5892;43.412;24.612;2023-05-27T10:16:56;100060.91;;;25.91;80.52
11672;BME280;5892;43.412;24.612;2023-05-27T10:19:23;100027.75;;;25.79;80.59
11672;BME280;5892;43.412;24.612;2023-05-27T10:21:51;100050.34;;;25.98;81.16
11672;BME280;5892;43.412;24.612;2023-05-27T10:24:18;100056.44;;;26.24;78.06
11672;BME280;5892;43.412;24.612;2023-05-27T10:26:46;100044.56;;;26.43;78.86
11672;BME280;5892;43.412;24.612;2023-05-27T10:29:15;100033.31;;;26.43;77.08
11672;BME280;5892;43.412;24.612;2023-05-27T10:31:47;100040.66;;;26.87;75.21
11672;BME280;5892;43.412;24.612;2023-05-27T10:34:15;100039.44;;;26.88;70.19
11672;BME280;5892;43.412;24.612;2023-05-27T10:36:44;100029.25;;;26.71;71.61
11672;BME280;5892;43.412;24.612;2023-05-27T10:39:15;100016.75;;;26.48;70.16
11672;BME280;5892;43.412;24.612;2023-05-27T10:41:43;99992.81;;;26.40;71.97
11672;BME280;5892;43.412;24.612;2023-05-27T10:44:10;100002.25;;;26.53;70.62
11672;BME280;5892;43.412;24.612;2023-05-27T10:46:38;99999.59;;;26.43;71.74
11672;BME280;5892;43.412;24.612;2023-05-27T10:49:13;100003.31;;;26.36;70.92
11672;BME280;5892;43.412;24.612;2023-05-27T10:51:42;99984.91;;;26.01;69.61
11672;BME280;5892;43.412;24.612;2023-05-27T10:54:09;99995.63;;;26.40;69.46
11672;BME280;5892;43.412;24.612;2023-05-27T10:56:37;99995.19;;;26.42;69.14
11672;BME280;5892;43.412;24.612;2023-05-27T10:59:04;99984.28;;;26.17;67.20
11672;BME280;5892;43.412;24.612;2023-05-27T11:01:33;99988.22;;;26.27;68.46
11672;BME280;5892;43.412;24.612;2023-05-27T11:04:01;99982.63;;;26.23;68.41
11672;BME280;5892;43.412;24.612;2023-05-27T11:06:29;99971.69;;;26.02;69.76
11672;BME280;5892;43.412;24.612;2023-05-27T11:08:56;99978.91;;;26.03;70.32
11672;BME280;5892;43.412;24.612;2023-05-27T11:11:22;99964.94;;;25.69;68.90
11672;BME280;5892;43.412;24.612;2023-05-27T11:13:50;99962.47;;;25.75;67.83
11672;BME280;5892;43.412;24.612;2023-05-27T11:16:17;99964.16;;;25.68;67.24
11672;BME280;5892;43.412;24.612;2023-05-27T11:18:45;99955.00;;;25.61;68.59
11672;BME280;5892;43.412;24.612;2023-05-27T11:21:13;99965.69;;;25.73;70.27
11672;BME280;5892;43.412;24.612;2023-05-27T11:23:44;99943.69;;;25.38;69.33
11672;BME280;5892;43.412;24.612;2023-05-27T11:26:15;99948.84;;;25.39;70.15
11672;BME280;5892;43.412;24.612;2023-05-27T11:28:47;99953.91;;;25.51;69.54
11672;BME280;5892;43.412;24.612;2023-05-27T11:31:14;99894.53;;;25.26;66.30
11672;BME280;5892;43.412;24.612;2023-05-27T11:33:42;99941.63;;;25.72;65.34
11672;BME280;5892;43.412;24.612;2023-05-27T11:36:12;99943.16;;;25.80;67.15
11672;BME280;5892;43.412;24.612;2023-05-27T11:38:48;99934.56;;;25.60;69.19
11672;BME280;5892;43.412;24.612;2023-05-27T11:41:15;99924.66;;;25.83;68.63
11672;BME280;5892;43.412;24.612;2023-05-27T11:43:54;99926.66;;;25.52;67.04
11672;BME280;5892;43.412;24.612;2023-05-27T11:46:21;99923.50;;;25.16;67.28
11672;BME280;5892;43.412;24.612;2023-05-27T11:48:48;99912.97;;;24.89;68.13
11672;BME280;5892;43.412;24.612;2023-05-27T11:51:16;99925.94;;;25.44;68.10
11672;BME280;5892;43.412;24.612;2023-05-27T11:53:45;99922.09;;;25.65;67.72
11672;BME280;5892;43.412;24.612;2023-05-27T11:56:13;99908.84;;;25.65;66.43
11672;BME280;5892;43.412;24.612;2023-05-27T11:58:41;99919.69;;;25.94;66.46
11672;BME280;5892;43.412;24.612;2023-05-27T12:01:10;99910.38;;;25.97;67.78
11672;BME280;5892;43.412;24.612;2023-05-27T12:03:38;99911.09;;;25.78;66.75
11672;BME280;5892;43.412;24.612;2023-05-27T12:06:06;99908.28;;;26.04;65.42
11672;BME280;5892;43.412;24.612;2023-05-27T12:08:33;99903.78;;;25.84;65.93
11672;BME280;5892;43.412;24.612;2023-05-27T12:11:01;99893.94;;;25.99;65.54
11672;BME280;5892;43.412;24.612;2023-05-27T12:13:29;99899.28;;;25.90;70.04
11672;BME280;5892;43.412;24.612;2023-05-27T12:15:57;99896.41;;;25.93;64.29
11672;BME280;5892;43.412;24.612;2023-05-27T12:18:24;99881.91;;;25.98;64.58
11672;BME280;5892;43.412;24.612;2023-05-27T12:20:51;99882.16;;;26.07;67.04
11672;BME280;5892;43.412;24.612;2023-05-27T12:23:18;99871.22;;;26.13;66.21
11672;BME280;5892;43.412;24.612;2023-05-27T12:25:45;99880.44;;;26.40;65.51
11672;BME280;5892;43.412;24.612;2023-05-27T12:28:12;99846.06;;;25.83;65.60
11672;BME280;5892;43.412;24.612;2023-05-27T12:30:40;99874.34;;;26.22;65.88
11672;BME280;5892;43.412;24.612;2023-05-27T12:33:07;99871.06;;;26.24;62.62
11672;BME280;5892;43.412;24.612;2023-05-27T12:35:33;99863.09;;;26.22;63.85
11672;BME280;5892;43.412;24.612;2023-05-27T12:38:00;99850.31;;;25.67;63.40
11672;BME280;5892;43.412;24.612;2023-05-27T12:40:27;99853.28;;;26.07;63.84
11672;BME280;5892;43.412;24.612;2023-05-27T12:42:54;99849.69;;;26.06;62.60
11672;BME280;5892;43.412;24.612;2023-05-27T12:45:21;99843.38;;;25.99;63.99
11672;BME280;5892;43.412;24.612;2023-05-27T12:47:51;99836.38;;;26.10;63.15